createdAt,value
2018-03-20T00:01:49.665Z,6.40
2018-03-20T00:04:15.841Z,5.33
2018-03-20T00:06:42.091Z,5.47
2018-03-20T00:09:08.335Z,5.10
2018-03-20T00:11:34.506Z,5.43
2018-03-20T00:14:00.718Z,4.67
2018-03-20T00:16:26.976Z,5.50
2018-03-20T00:18:53.141Z,5.13
2018-03-20T00:21:19.368Z,5.37
2018-03-20T00:23:45.572Z,5.80
2018-03-20T00:26:11.721Z,5.83
2018-03-20T00:28:37.919Z,4.97
2018-03-20T00:31:04.168Z,5.53
2018-03-20T00:33:30.324Z,5.10
2018-03-20T00:35:56.576Z,5.07
2018-03-20T00:38:22.752Z,6.50
2018-03-20T00:40:49.007Z,5.50
2018-03-20T00:43:15.199Z,5.90
2018-03-20T00:45:41.360Z,5.13
2018-03-20T00:48:07.565Z,5.40
2018-03-20T00:50:33.740Z,5.93
2018-03-20T00:52:59.915Z,6.03
2018-03-20T00:55:26.155Z,5.03
2018-03-20T00:57:52.347Z,5.33
2018-03-20T01:00:18.710Z,4.83
2018-03-20T01:02:44.888Z,4.87
2018-03-20T01:05:11.120Z,5.60
2018-03-20T01:07:37.283Z,5.47
2018-03-20T01:10:03.595Z,4.83
2018-03-20T01:12:29.821Z,5.03
2018-03-20T01:14:56.155Z,5.33
2018-03-20T01:17:22.302Z,4.47
2018-03-20T01:19:48.589Z,5.07
2018-03-20T01:22:14.808Z,5.33
2018-03-20T01:24:40.965Z,5.33
2018-03-20T01:27:07.173Z,5.00
2018-03-20T01:29:33.432Z,4.50
2018-03-20T01:31:59.604Z,5.73
2018-03-20T01:34:25.842Z,5.00
2018-03-20T01:36:52.078Z,5.77
2018-03-20T01:39:18.384Z,5.30
2018-03-20T01:41:44.656Z,4.77
2018-03-20T01:44:10.842Z,4.43
2018-03-20T01:46:37.010Z,4.43
2018-03-20T01:49:03.246Z,4.60
2018-03-20T01:51:29.508Z,4.60
2018-03-20T01:53:55.696Z,4.70
2018-03-20T01:56:21.911Z,6.37
2018-03-20T01:58:48.091Z,4.50
2018-03-20T02:01:14.407Z,4.90
2018-03-20T02:03:40.619Z,5.17
2018-03-20T02:06:06.885Z,4.20
2018-03-20T02:08:33.125Z,4.23
2018-03-20T02:10:59.374Z,3.77
2018-03-20T02:13:25.553Z,3.80
2018-03-20T02:15:51.717Z,3.93
2018-03-20T02:18:17.890Z,4.10
2018-03-20T02:20:44.201Z,4.23
2018-03-20T02:23:10.380Z,4.30
2018-03-20T02:25:36.569Z,3.83
2018-03-20T02:28:02.785Z,4.13
2018-03-20T02:30:29.029Z,3.70
2018-03-20T02:32:55.233Z,5.03
2018-03-20T02:35:21.465Z,4.53
2018-03-20T02:37:47.711Z,3.87
2018-03-20T02:40:13.941Z,4.80
2018-03-20T02:42:40.114Z,4.63
2018-03-20T02:45:06.339Z,4.07
2018-03-20T02:47:32.564Z,4.30
2018-03-20T02:49:58.791Z,4.50
2018-03-20T02:52:25.024Z,4.97
2018-03-20T02:54:51.262Z,3.97
2018-03-20T02:57:17.536Z,4.83
2018-03-20T02:59:50.686Z,5.10
2018-03-20T03:02:16.846Z,3.90
2018-03-20T03:04:43.069Z,4.10
2018-03-20T03:07:09.268Z,4.27
2018-03-20T03:09:35.468Z,5.53
2018-03-20T03:12:01.713Z,4.53
2018-03-20T03:14:27.937Z,4.83
2018-03-20T03:16:54.094Z,4.23
2018-03-20T03:19:20.300Z,4.77
2018-03-20T03:21:46.494Z,3.83
2018-03-20T03:24:12.753Z,4.37
2018-03-20T03:26:38.929Z,4.70
2018-03-20T03:29:05.097Z,5.00
2018-03-20T03:31:31.306Z,4.50
2018-03-20T03:33:57.512Z,4.97
2018-03-20T03:36:23.696Z,5.10
2018-03-20T03:38:49.845Z,4.60
2018-03-20T03:41:16.025Z,5.27
2018-03-20T03:43:42.243Z,5.30
2018-03-20T03:46:08.405Z,7.93
2018-03-20T03:48:34.706Z,5.03
2018-03-20T03:51:00.982Z,4.70
2018-03-20T03:53:27.136Z,5.53
2018-03-20T03:55:53.346Z,5.30
2018-03-20T03:58:19.515Z,4.50
2018-03-20T04:00:45.757Z,4.40
2018-03-20T04:03:11.963Z,5.37
2018-03-20T04:05:38.171Z,5.13
2018-03-20T04:08:04.397Z,5.17
2018-03-20T04:10:30.595Z,5.00
2018-03-20T04:12:56.790Z,4.83
2018-03-20T04:15:22.975Z,4.60
2018-03-20T04:17:49.192Z,5.10
2018-03-20T04:20:15.463Z,5.87
2018-03-20T04:22:41.734Z,7.43
2018-03-20T04:25:07.902Z,6.20
2018-03-20T04:27:34.060Z,5.43
2018-03-20T04:30:00.178Z,5.43
2018-03-20T04:32:26.410Z,5.30
2018-03-20T04:34:52.566Z,5.70
2018-03-20T04:37:18.670Z,6.17
2018-03-20T04:39:44.832Z,6.07
2018-03-20T04:42:11.028Z,6.70
2018-03-20T04:44:37.203Z,6.47
2018-03-20T04:47:03.388Z,7.13
2018-03-20T04:49:29.499Z,6.90
2018-03-20T04:51:55.652Z,6.70
2018-03-20T04:54:21.813Z,7.57
2018-03-20T04:56:47.930Z,7.23
2018-03-20T04:59:14.072Z,10.33
2018-03-20T05:01:40.258Z,6.60
2018-03-20T05:04:06.442Z,5.67
2018-03-20T05:06:32.535Z,5.83
2018-03-20T05:08:58.657Z,5.80
2018-03-20T05:11:24.837Z,5.57
2018-03-20T05:13:50.967Z,5.57
2018-03-20T05:16:17.122Z,5.03
2018-03-20T05:18:49.166Z,5.13
2018-03-20T05:24:14.854Z,5.43
2018-03-20T05:26:41.020Z,5.50
2018-03-20T05:29:07.212Z,5.40
2018-03-20T05:31:33.489Z,5.67
2018-03-20T05:33:59.644Z,5.27
2018-03-20T05:36:25.807Z,5.33
2018-03-20T05:38:52.015Z,5.83
2018-03-20T05:41:18.234Z,7.93
2018-03-20T05:43:44.469Z,6.83
2018-03-20T05:46:10.668Z,9.70
2018-03-20T05:48:53.532Z,8.60
2018-03-20T05:51:22.497Z,11.03
2018-03-20T05:53:48.661Z,6.67
2018-03-20T05:56:14.853Z,7.60
2018-03-20T05:58:41.018Z,7.40
2018-03-20T06:01:07.149Z,7.20
2018-03-20T06:03:33.308Z,6.27
2018-03-20T06:05:59.482Z,5.67
2018-03-20T06:08:25.609Z,5.73
2018-03-20T06:10:51.740Z,5.30
2018-03-20T06:13:17.931Z,4.97
2018-03-20T06:15:44.113Z,4.80
2018-03-20T06:18:10.247Z,5.00
2018-03-20T06:20:36.370Z,4.47
2018-03-20T06:23:02.499Z,4.60
2018-03-20T06:25:28.682Z,4.43
2018-03-20T06:27:54.784Z,7.53
2018-03-20T06:30:20.902Z,3.33
2018-03-20T06:32:47.043Z,3.27
2018-03-20T06:35:13.206Z,3.00
2018-03-20T06:37:39.331Z,3.10
2018-03-20T06:40:05.491Z,2.87
2018-03-20T06:42:31.671Z,2.93
2018-03-20T06:44:57.849Z,2.80
2018-03-20T06:47:24.013Z,3.40
2018-03-20T06:49:50.139Z,3.33
2018-03-20T06:52:16.304Z,3.77
2018-03-20T06:54:42.474Z,3.87
2018-03-20T06:57:08.663Z,3.00
2018-03-20T06:59:34.849Z,3.80
2018-03-20T07:02:00.966Z,3.10
2018-03-20T07:04:27.124Z,6.57
2018-03-20T07:06:53.302Z,4.10
2018-03-20T07:09:19.434Z,3.07
2018-03-20T07:11:45.569Z,3.80
2018-03-20T07:14:11.714Z,3.30
2018-03-20T07:16:37.885Z,4.30
2018-03-20T07:19:04.027Z,4.97
2018-03-20T07:21:30.157Z,4.10
2018-03-20T07:23:56.320Z,3.20
2018-03-20T07:26:22.484Z,3.73
2018-03-20T07:28:48.604Z,3.30
2018-03-20T07:31:14.738Z,4.90
2018-03-20T07:33:40.858Z,2.77
2018-03-20T07:36:07.032Z,3.53
2018-03-20T07:38:33.144Z,3.33
2018-03-20T07:40:59.272Z,6.17
2018-03-20T07:43:25.445Z,3.33
2018-03-20T07:45:51.618Z,4.47
2018-03-20T07:48:17.766Z,3.50
2018-03-20T07:50:43.883Z,3.23
2018-03-20T07:53:10.050Z,3.97
2018-03-20T07:55:36.545Z,3.30
2018-03-20T07:58:02.686Z,4.73
2018-03-20T08:00:28.848Z,3.43
2018-03-20T08:02:54.979Z,3.47
2018-03-20T08:05:21.102Z,3.40
2018-03-20T08:07:47.289Z,3.90
2018-03-20T08:10:13.398Z,4.10
2018-03-20T08:12:39.616Z,3.27
2018-03-20T08:15:05.786Z,4.17
2018-03-20T08:17:31.962Z,5.33
2018-03-20T08:19:58.082Z,3.87
2018-03-20T08:22:24.205Z,4.03
2018-03-20T08:24:50.373Z,3.23
2018-03-20T08:27:16.539Z,3.50
2018-03-20T08:29:42.652Z,3.97
2018-03-20T08:32:08.783Z,3.10
2018-03-20T08:34:34.907Z,4.53
2018-03-20T08:37:01.143Z,4.30
2018-03-20T08:39:27.246Z,4.00
2018-03-20T08:41:53.394Z,3.87
2018-03-20T08:44:19.603Z,4.20
2018-03-20T08:46:45.794Z,4.23
2018-03-20T08:49:11.902Z,3.77
2018-03-20T08:51:38.018Z,4.03
2018-03-20T08:54:04.157Z,7.63
2018-03-20T08:56:30.314Z,3.80
2018-03-20T08:58:56.450Z,3.07
2018-03-20T09:01:22.573Z,3.73
2018-03-20T09:03:48.768Z,4.43
2018-03-20T09:06:14.915Z,3.87
2018-03-20T09:08:41.024Z,4.20
2018-03-20T09:11:07.184Z,3.27
2018-03-20T09:13:33.326Z,4.90
2018-03-20T09:15:59.496Z,3.57
2018-03-20T09:18:25.701Z,4.20
2018-03-20T09:20:51.812Z,3.47
2018-03-20T09:23:17.914Z,3.07
2018-03-20T09:25:44.056Z,3.70
2018-03-20T09:28:10.208Z,3.80
2018-03-20T09:30:36.338Z,7.73
2018-03-20T09:33:02.495Z,4.03
2018-03-20T09:35:28.646Z,3.70
2018-03-20T09:37:54.779Z,4.77
2018-03-20T09:40:20.870Z,5.70
2018-03-20T09:42:47.054Z,3.40
2018-03-20T09:45:13.185Z,4.07
2018-03-20T09:47:39.388Z,3.63
2018-03-20T09:50:05.481Z,4.50
2018-03-20T09:52:31.739Z,4.10
2018-03-20T09:54:57.890Z,4.10
2018-03-20T09:57:24.070Z,4.17
2018-03-20T09:59:50.189Z,4.10
2018-03-20T10:02:16.346Z,4.30
2018-03-20T10:04:42.516Z,4.53
2018-03-20T10:07:08.705Z,8.57
2018-03-20T10:09:34.898Z,4.07
2018-03-20T10:12:01.096Z,4.67
2018-03-20T10:14:27.255Z,4.27
2018-03-20T10:16:53.444Z,5.20
2018-03-20T10:19:20.307Z,3.70
2018-03-20T10:21:46.543Z,4.40
2018-03-20T10:24:12.685Z,4.73
2018-03-20T10:26:38.850Z,4.00
2018-03-20T10:29:05.034Z,4.47
2018-03-20T10:31:31.134Z,4.40
2018-03-20T10:33:57.236Z,4.13
2018-03-20T10:36:23.430Z,4.40
2018-03-20T10:38:50.557Z,4.77
2018-03-20T10:41:16.747Z,4.23
2018-03-20T10:43:42.933Z,6.30
2018-03-20T10:46:09.014Z,4.87
2018-03-20T10:48:35.198Z,4.50
2018-03-20T10:51:01.381Z,4.40
2018-03-20T10:53:27.496Z,5.03
2018-03-20T10:55:53.632Z,5.07
2018-03-20T10:58:19.855Z,3.97
2018-03-20T11:00:47.811Z,4.53
2018-03-20T11:03:13.897Z,4.30
2018-03-20T11:05:40.022Z,4.57
2018-03-20T11:08:06.210Z,3.80
2018-03-20T11:10:32.319Z,4.37
2018-03-20T11:12:58.665Z,4.40
2018-03-20T11:15:24.789Z,3.67
2018-03-20T11:17:50.968Z,3.40
2018-03-20T11:20:17.095Z,6.10
2018-03-20T11:22:43.210Z,3.97
2018-03-20T11:25:09.346Z,2.87
2018-03-20T11:27:35.530Z,9.00
2018-03-20T11:30:01.662Z,4.00
2018-03-20T11:32:27.758Z,3.23
2018-03-20T11:34:53.908Z,4.13
2018-03-20T11:37:20.101Z,3.60
2018-03-20T11:39:46.215Z,3.93
2018-03-20T11:42:12.326Z,3.57
2018-03-20T11:44:38.532Z,3.50
2018-03-20T11:47:04.681Z,3.20
2018-03-20T11:49:30.819Z,3.30
2018-03-20T11:51:56.967Z,3.70
2018-03-20T11:54:23.107Z,3.40
2018-03-20T11:56:49.249Z,4.67
2018-03-20T11:59:15.426Z,3.10
2018-03-20T12:01:41.559Z,3.30
2018-03-20T12:04:07.657Z,3.37
2018-03-20T12:06:34.087Z,3.67
2018-03-20T12:09:12.372Z,3.30
2018-03-20T12:11:38.500Z,3.70
2018-03-20T12:14:04.715Z,3.17
2018-03-20T12:16:30.910Z,4.07
2018-03-20T12:18:57.670Z,3.17
2018-03-20T12:21:23.866Z,3.63
2018-03-20T12:23:50.013Z,3.13
2018-03-20T12:26:16.151Z,2.93
2018-03-20T12:28:42.302Z,3.57
2018-03-20T12:31:08.409Z,3.03
2018-03-20T12:33:34.527Z,3.00
2018-03-20T12:36:00.749Z,2.80
2018-03-20T12:38:26.895Z,5.13
2018-03-20T12:40:52.997Z,2.80
2018-03-20T12:43:19.183Z,3.03
2018-03-20T12:45:45.284Z,2.70
2018-03-20T12:48:11.460Z,3.80
2018-03-20T12:50:37.605Z,2.90
2018-03-20T12:53:03.755Z,2.73
2018-03-20T12:55:29.858Z,3.10
2018-03-20T12:57:56.033Z,3.27
2018-03-20T13:00:22.190Z,2.83
2018-03-20T13:02:48.356Z,2.57
2018-03-20T13:05:14.485Z,2.80
2018-03-20T13:07:40.656Z,2.63
2018-03-20T13:10:06.833Z,4.07
2018-03-20T13:12:32.977Z,3.27
2018-03-20T13:14:59.177Z,3.90
2018-03-20T13:17:25.507Z,2.83
2018-03-20T13:19:51.619Z,2.70
2018-03-20T13:22:17.771Z,2.97
2018-03-20T13:24:43.892Z,2.83
2018-03-20T13:27:10.071Z,2.73
2018-03-20T13:29:36.182Z,2.50
2018-03-20T13:32:02.311Z,3.43
2018-03-20T13:34:28.464Z,2.90
2018-03-20T13:36:54.570Z,3.37
2018-03-20T13:39:20.760Z,3.13
2018-03-20T13:41:46.882Z,4.40
2018-03-20T13:44:13.041Z,2.40
2018-03-20T13:46:39.200Z,4.57
2018-03-20T13:49:05.444Z,2.30
2018-03-20T13:51:31.566Z,2.30
2018-03-20T13:53:57.681Z,2.43
2018-03-20T13:56:23.816Z,2.60
2018-03-20T13:58:49.959Z,2.80
2018-03-20T14:01:16.058Z,2.90
2018-03-20T14:03:42.198Z,2.30
2018-03-20T14:06:08.483Z,2.60
2018-03-20T14:08:34.720Z,2.17
2018-03-20T14:11:00.888Z,2.10
2018-03-20T14:13:27.075Z,2.20
2018-03-20T14:15:53.284Z,2.13
2018-03-20T14:18:19.564Z,2.83
2018-03-20T14:20:45.769Z,2.97
2018-03-20T14:23:11.903Z,2.50
2018-03-20T14:25:38.196Z,2.47
2018-03-20T14:28:04.412Z,10.60
2018-03-20T14:30:30.607Z,3.40
2018-03-20T14:32:56.781Z,3.00
2018-03-20T14:35:22.998Z,2.73
2018-03-20T14:37:49.272Z,2.50
2018-03-20T14:40:15.403Z,2.10
2018-03-20T14:42:41.659Z,2.30
2018-03-20T14:45:07.897Z,2.00
2018-03-20T14:47:34.140Z,2.20
2018-03-20T14:50:00.314Z,2.87
2018-03-20T14:52:26.521Z,3.07
2018-03-20T14:54:52.713Z,3.00
2018-03-20T14:57:18.927Z,2.57
2018-03-20T14:59:45.180Z,3.00
2018-03-20T15:02:11.353Z,2.57
2018-03-20T15:04:37.507Z,2.63
2018-03-20T15:07:03.668Z,2.90
2018-03-20T15:09:30.008Z,2.73
2018-03-20T15:11:56.178Z,2.17
2018-03-20T15:14:22.434Z,2.73
2018-03-20T15:16:48.603Z,2.40
2018-03-20T15:19:14.788Z,2.63
2018-03-20T15:21:40.989Z,2.83
2018-03-20T15:24:07.264Z,3.20
2018-03-20T15:26:33.474Z,2.97
2018-03-20T15:28:59.723Z,2.50
2018-03-20T15:31:25.931Z,2.37
2018-03-20T15:33:52.144Z,2.50
2018-03-20T15:36:18.370Z,3.17
2018-03-20T15:38:44.633Z,2.73
2018-03-20T15:41:10.819Z,2.83
2018-03-20T15:43:37.040Z,2.40
2018-03-20T15:46:03.292Z,2.47
2018-03-20T15:48:29.497Z,2.20
2018-03-20T15:50:55.707Z,2.33
2018-03-20T15:53:21.925Z,2.40
2018-03-20T15:55:48.127Z,2.73
2018-03-20T15:58:14.406Z,2.63
2018-03-20T16:00:40.595Z,2.37
2018-03-20T16:03:06.774Z,2.27
2018-03-20T16:05:32.955Z,2.60
2018-03-20T16:07:59.175Z,3.27
2018-03-20T16:10:25.393Z,3.80
2018-03-20T16:12:51.624Z,3.87
2018-03-20T16:15:17.892Z,3.27
2018-03-20T16:17:44.269Z,2.63
2018-03-20T16:20:10.472Z,2.37
2018-03-20T16:22:36.654Z,2.20
2018-03-20T16:25:03.041Z,4.33
2018-03-20T16:27:29.324Z,3.97
2018-03-20T16:29:55.485Z,2.93
2018-03-20T16:32:21.598Z,3.27
2018-03-20T16:34:47.772Z,2.83
2018-03-20T16:37:13.875Z,2.93
2018-03-20T16:39:40.025Z,2.63
2018-03-20T16:42:06.293Z,2.80
2018-03-20T16:44:32.556Z,2.43
2018-03-20T16:46:58.804Z,2.70
2018-03-20T16:49:25.042Z,2.33
2018-03-20T16:51:51.240Z,2.70
2018-03-20T16:54:17.383Z,2.57
2018-03-20T16:56:43.585Z,2.30
2018-03-20T16:59:09.893Z,3.27
2018-03-20T17:01:36.102Z,2.70
2018-03-20T17:04:02.359Z,2.40
2018-03-20T17:06:28.609Z,1.97
2018-03-20T17:08:54.896Z,2.37
2018-03-20T17:11:21.104Z,2.10
2018-03-20T17:13:47.389Z,2.83
2018-03-20T17:16:13.646Z,1.87
2018-03-20T17:18:39.855Z,3.77
2018-03-20T17:21:06.133Z,2.03
2018-03-20T17:23:32.360Z,2.47
2018-03-20T17:25:58.595Z,3.10
2018-03-20T17:28:25.012Z,2.10
2018-03-20T17:30:51.226Z,2.83
2018-03-20T17:33:17.430Z,2.80
2018-03-20T17:35:43.704Z,2.13
2018-03-20T17:38:09.986Z,2.67
2018-03-20T17:40:36.306Z,3.17
2018-03-20T17:43:02.580Z,2.80
2018-03-20T17:45:28.738Z,2.77
2018-03-20T17:47:54.930Z,3.40
2018-03-20T17:50:21.255Z,3.53
2018-03-20T17:52:47.466Z,3.63
2018-03-20T17:55:13.641Z,2.50
2018-03-20T17:57:39.859Z,3.00
2018-03-20T18:00:06.152Z,3.10
2018-03-20T18:02:32.395Z,3.53
2018-03-20T18:04:58.641Z,3.53
2018-03-20T18:07:24.825Z,5.20
2018-03-20T18:09:51.167Z,5.30
2018-03-20T18:12:17.369Z,4.07
2018-03-20T18:14:43.603Z,3.50
2018-03-20T18:17:09.783Z,3.70
2018-03-20T18:19:36.125Z,3.63
2018-03-20T18:22:02.293Z,4.00
2018-03-20T18:24:28.452Z,4.27
2018-03-20T18:26:54.652Z,3.77
2018-03-20T18:29:21.004Z,4.60
2018-03-20T18:31:47.237Z,4.27
2018-03-20T18:34:13.460Z,3.97
2018-03-20T18:36:39.612Z,4.07
2018-03-20T18:39:05.856Z,4.53
2018-03-20T18:41:32.346Z,3.97
2018-03-20T18:43:58.695Z,4.13
2018-03-20T18:46:24.868Z,3.83
2018-03-20T18:48:51.159Z,4.07
2018-03-20T18:51:17.442Z,4.40
2018-03-20T18:53:43.616Z,4.67
2018-03-20T18:56:09.780Z,4.37
2018-03-20T18:58:35.973Z,4.67
2018-03-20T19:01:02.347Z,5.33
2018-03-20T19:03:28.558Z,4.13
2018-03-20T19:05:54.868Z,3.93
2018-03-20T19:08:21.098Z,4.00
2018-03-20T19:10:47.388Z,4.97
2018-03-20T19:13:13.719Z,4.70
2018-03-20T19:15:39.940Z,5.03
2018-03-20T19:18:06.126Z,4.80
2018-03-20T19:20:32.402Z,4.37
2018-03-20T19:22:58.744Z,4.77
2018-03-20T19:25:25.005Z,4.87
2018-03-20T19:27:51.312Z,4.97
2018-03-20T19:30:17.558Z,4.23
2018-03-20T19:32:43.803Z,5.23
2018-03-20T19:35:09.975Z,4.20
2018-03-20T19:37:36.183Z,4.30
2018-03-20T19:40:02.435Z,4.40
2018-03-20T19:42:28.681Z,4.20
2018-03-20T19:44:55.049Z,4.60
2018-03-20T19:47:21.532Z,4.57
2018-03-20T19:49:47.746Z,4.67
2018-03-20T19:52:14.008Z,4.97
2018-03-20T19:54:40.221Z,5.53
2018-03-20T19:57:06.473Z,5.57
2018-03-20T19:59:32.718Z,5.47
2018-03-20T20:01:59.012Z,4.57
2018-03-20T20:04:25.355Z,5.03
2018-03-20T20:06:51.686Z,4.27
2018-03-20T20:09:18.130Z,5.67
2018-03-20T20:11:44.395Z,6.00
2018-03-20T20:14:10.663Z,4.80
2018-03-20T20:16:36.906Z,4.57
2018-03-20T20:19:03.233Z,4.87
2018-03-20T20:21:29.478Z,4.37
2018-03-20T20:23:55.825Z,4.37
2018-03-20T20:26:22.320Z,4.50
2018-03-20T20:28:48.715Z,4.77
2018-03-20T20:31:14.897Z,5.27
2018-03-20T20:33:41.348Z,5.63
2018-03-20T20:36:07.690Z,4.20
2018-03-20T20:38:34.106Z,4.90
2018-03-20T20:41:00.513Z,4.60
2018-03-20T20:43:26.893Z,5.33
2018-03-20T20:45:53.108Z,4.47
2018-03-20T20:48:19.372Z,4.73
2018-03-20T20:50:45.643Z,4.63
2018-03-20T20:53:12.064Z,6.17
2018-03-20T20:55:38.228Z,4.27
2018-03-20T20:58:04.461Z,4.13
2018-03-20T21:00:30.702Z,3.90
2018-03-20T21:02:57.073Z,4.23
2018-03-20T21:05:23.335Z,4.07
2018-03-20T21:07:49.574Z,5.30
2018-03-20T21:10:15.743Z,9.40
2018-03-20T21:12:41.982Z,7.50
2018-03-20T21:15:08.268Z,4.80
2018-03-20T21:17:34.518Z,4.83
2018-03-20T21:20:00.713Z,3.60
2018-03-20T21:22:26.960Z,4.97
2018-03-20T21:24:53.167Z,4.20
2018-03-20T21:27:19.399Z,4.27
2018-03-20T21:29:45.635Z,5.67
2018-03-20T21:32:11.883Z,4.30
2018-03-20T21:34:38.113Z,4.50
2018-03-20T21:37:04.288Z,4.53
2018-03-20T21:39:30.512Z,3.90
2018-03-20T21:41:56.688Z,4.97
2018-03-20T21:44:22.960Z,4.23
2018-03-20T21:46:49.168Z,6.07
2018-03-20T21:49:15.337Z,5.47
2018-03-20T21:51:41.562Z,4.87
2018-03-20T21:54:07.995Z,4.60
2018-03-20T21:56:34.173Z,4.40
2018-03-20T21:59:00.410Z,4.70
2018-03-20T22:01:26.613Z,4.23
2018-03-20T22:03:52.820Z,4.17
2018-03-20T22:06:18.976Z,4.13
2018-03-20T22:08:45.176Z,5.13
2018-03-20T22:11:11.393Z,4.60
2018-03-20T22:13:37.675Z,3.97
2018-03-20T22:16:03.845Z,4.90
2018-03-20T22:18:30.017Z,3.47
2018-03-20T22:20:56.261Z,3.93
2018-03-20T22:23:22.471Z,5.20
2018-03-20T22:25:48.653Z,4.20
2018-03-20T22:28:14.840Z,4.70
2018-03-20T22:30:41.103Z,3.80
2018-03-20T22:33:07.317Z,4.00
2018-03-20T22:35:33.478Z,4.17
2018-03-20T22:37:59.688Z,3.93
2018-03-20T22:40:25.853Z,4.23
2018-03-20T22:42:52.113Z,4.40
2018-03-20T22:45:18.258Z,4.30
2018-03-20T22:47:44.957Z,4.23
2018-03-20T22:50:11.143Z,4.73
2018-03-20T22:52:37.336Z,4.93
2018-03-20T22:55:03.610Z,4.33
2018-03-20T22:57:29.801Z,5.40
2018-03-20T22:59:55.978Z,5.60
2018-03-20T23:02:22.277Z,5.47
2018-03-20T23:04:48.504Z,5.40
2018-03-20T23:07:14.679Z,4.80
2018-03-20T23:09:40.899Z,6.43
2018-03-20T23:12:07.126Z,6.20
2018-03-20T23:14:33.374Z,5.30
2018-03-20T23:16:59.627Z,5.70
2018-03-20T23:19:25.893Z,5.50
2018-03-20T23:21:52.093Z,6.17
2018-03-20T23:24:18.324Z,5.90
2018-03-20T23:26:44.525Z,7.10
2018-03-20T23:29:10.718Z,7.47
2018-03-20T23:31:36.889Z,7.77
2018-03-20T23:34:03.120Z,6.87
2018-03-20T23:36:29.262Z,8.30
2018-03-20T23:38:55.431Z,5.33
2018-03-20T23:41:21.640Z,5.20
2018-03-20T23:43:47.915Z,4.57
2018-03-20T23:46:14.078Z,5.30
2018-03-20T23:48:40.267Z,4.77
2018-03-20T23:51:06.504Z,4.97
2018-03-20T23:53:32.769Z,5.57
2018-03-20T23:55:59.033Z,6.10
2018-03-20T23:58:25.210Z,5.03
